<?xml version="1.0" encoding="UTF-8"?>
<gpx version="1.1" creator="Endomondo.com" xsi:schemaLocation="http://www.topografix.com/GPX/1/1 http://www.topografix.com/GPX/1/1/gpx.xsd http://www.garmin.com/xmlschemas/GpxExtensions/v3 http://www.garmin.com/xmlschemas/GpxExtensionsv3.xsd http://www.garmin.com/xmlschemas/TrackPointExtension/v1 http://www.garmin.com/xmlschemas/TrackPointExtensionv1.xsd" xmlns="http://www.topografix.com/GPX/1/1" xmlns:gpxtpx="http://www.garmin.com/xmlschemas/TrackPointExtension/v1" xmlns:gpxx="http://www.garmin.com/xmlschemas/GpxExtensions/v3" xmlns:xsi="http://www.w3.org/2001/XMLSchema-instance">
  <metadata>
    <author>
      <name>jose manuel</name>
      <email id="jmanuelguerrero" domain="gmail.com"/>
    </author>
    <link href="http://www.endomondo.com">
      <text>Endomondo</text>
    </link>
    <time>2016-08-24T09:38:44Z</time>
  </metadata>
  <trk>
    <src>http://www.endomondo.com/</src>
    <link href="https://www.endomondo.com/workouts/682985036/159315">
      <text>endomondo</text>
    </link>
    <type>OTHER</type>
    <trkseg>
      <trkpt lat="42.5401299" lon="-5.4247911">
        <time>2016-03-06T16:15:59Z</time>
      </trkpt>
      <trkpt lat="42.5401299" lon="-5.4247911">
        <ele>877.8</ele>
        <time>2016-03-06T16:16:02Z</time>
      </trkpt>
      <trkpt lat="42.5402284" lon="-5.4247733">
        <ele>885.5</ele>
        <time>2016-03-06T16:17:00Z</time>
      </trkpt>
      <trkpt lat="42.5402715" lon="-5.4247351">
        <ele>885.5</ele>
        <time>2016-03-06T16:17:03Z</time>
      </trkpt>
      <trkpt lat="42.5402384" lon="-5.4247802">
        <ele>885.5</ele>
        <time>2016-03-06T16:17:15Z</time>
      </trkpt>
      <trkpt lat="42.5401927" lon="-5.4247999">
        <ele>884.4</ele>
        <time>2016-03-06T16:17:32Z</time>
      </trkpt>
      <trkpt lat="42.540166" lon="-5.4248573">
        <ele>884.3</ele>
        <time>2016-03-06T16:18:23Z</time>
      </trkpt>
      <trkpt lat="42.5401994" lon="-5.4249111">
        <ele>883.2</ele>
        <time>2016-03-06T16:19:51Z</time>
      </trkpt>
      <trkpt lat="42.5402425" lon="-5.4248683">
        <ele>881.8</ele>
        <time>2016-03-06T16:20:33Z</time>
      </trkpt>
      <trkpt lat="42.5401879" lon="-5.4249171">
        <ele>882.7</ele>
        <time>2016-03-06T16:22:06Z</time>
      </trkpt>
      <trkpt lat="42.540133" lon="-5.4249106">
        <ele>883.0</ele>
        <time>2016-03-06T16:25:18Z</time>
      </trkpt>
      <trkpt lat="42.5401255" lon="-5.4248504">
        <ele>884.0</ele>
        <time>2016-03-06T16:26:57Z</time>
      </trkpt>
      <trkpt lat="42.5401761" lon="-5.4248643">
        <ele>884.4</ele>
        <time>2016-03-06T16:27:18Z</time>
      </trkpt>
      <trkpt lat="42.5402367" lon="-5.4249549">
        <ele>887.7</ele>
        <time>2016-03-06T16:32:45Z</time>
      </trkpt>
      <trkpt lat="42.5402365" lon="-5.4248938">
        <ele>886.0</ele>
        <time>2016-03-06T16:34:37Z</time>
      </trkpt>
      <trkpt lat="42.5402164" lon="-5.4249502">
        <ele>886.8</ele>
        <time>2016-03-06T16:36:11Z</time>
      </trkpt>
      <trkpt lat="42.540238" lon="-5.4248959">
        <ele>887.8</ele>
        <time>2016-03-06T16:38:44Z</time>
      </trkpt>
      <trkpt lat="42.5402337" lon="-5.4248347">
        <ele>888.1</ele>
        <time>2016-03-06T16:39:17Z</time>
      </trkpt>
      <trkpt lat="42.5402042" lon="-5.4247804">
        <ele>888.1</ele>
        <time>2016-03-06T16:39:42Z</time>
      </trkpt>
      <trkpt lat="42.5401763" lon="-5.4246519">
        <ele>888.1</ele>
        <time>2016-03-06T16:39:57Z</time>
      </trkpt>
      <trkpt lat="42.5401212" lon="-5.4245818">
        <ele>889.0</ele>
        <time>2016-03-06T16:41:07Z</time>
      </trkpt>
      <trkpt lat="42.5401246" lon="-5.4246426">
        <ele>890.0</ele>
        <time>2016-03-06T16:49:48Z</time>
      </trkpt>
      <trkpt lat="42.5401342" lon="-5.4247034">
        <ele>890.1</ele>
        <time>2016-03-06T16:49:58Z</time>
      </trkpt>
      <trkpt lat="42.5401218" lon="-5.4245736">
        <ele>891.7</ele>
        <time>2016-03-06T16:51:58Z</time>
      </trkpt>
      <trkpt lat="42.5401218" lon="-5.4245736">
        <time>2016-03-06T16:55:03Z</time>
      </trkpt>
    </trkseg>
    <trkseg>
      <trkpt lat="42.5401218" lon="-5.4245736">
        <time>2016-03-06T16:55:04Z</time>
      </trkpt>
    </trkseg>
  </trk>
</gpx>